createdAt,value
2022-10-02T00:00:25.635Z,52.3050
2022-10-02T00:01:28.032Z,52.2150
2022-10-02T00:02:30.154Z,52.2730
2022-10-02T00:03:32.424Z,52.1510
2022-10-02T00:04:34.761Z,52.1840
2022-10-02T00:05:37.009Z,52.1630
2022-10-02T00:06:39.253Z,52.1970
2022-10-02T00:07:39.355Z,52.1840
2022-10-02T00:08:41.631Z,52.1930
2022-10-02T00:09:43.848Z,52.3780
2022-10-02T00:10:46.054Z,52.3110
2022-10-02T00:11:48.231Z,52.3010
2022-10-02T00:12:50.450Z,52.2180
2022-10-02T00:13:52.661Z,52.2530
2022-10-02T00:14:54.912Z,52.2240
2022-10-02T00:15:57.161Z,52.2510
2022-10-02T00:16:59.534Z,52.3130
2022-10-02T00:17:59.445Z,52.2570
2022-10-02T00:19:01.677Z,52.2410
2022-10-02T00:20:03.909Z,52.2110
2022-10-02T00:21:06.147Z,52.1820
2022-10-02T00:22:08.346Z,52.1990
2022-10-02T00:23:10.582Z,52.2300
2022-10-02T00:24:12.826Z,52.2920
2022-10-02T00:25:15.067Z,52.2450
2022-10-02T00:26:17.356Z,52.2340
2022-10-02T00:27:19.613Z,52.2950
2022-10-02T00:28:21.958Z,52.1470
2022-10-02T00:29:22.073Z,52.1450
2022-10-02T00:30:24.374Z,52.1570
2022-10-02T00:31:26.840Z,52.0740
2022-10-02T00:32:28.988Z,52.1700
2022-10-02T00:32:57.023Z,52.2700
2022-10-02T00:33:59.186Z,52.2180
2022-10-02T00:34:59.321Z,52.1260
2022-10-02T00:36:01.590Z,52.0490
2022-10-02T00:37:03.835Z,52.0800
2022-10-02T00:38:06.093Z,52.0920
2022-10-02T00:39:08.303Z,52.0420
2022-10-02T00:40:10.578Z,52.0840
2022-10-02T00:41:12.861Z,52.0910
2022-10-02T00:42:15.138Z,52.1410
2022-10-02T00:43:17.394Z,52.0360
2022-10-02T00:44:17.515Z,52.0430
2022-10-02T00:45:19.790Z,51.9900
2022-10-02T00:46:22.083Z,52.0150
2022-10-02T00:47:24.376Z,52.0150
2022-10-02T00:48:26.649Z,52.1280
2022-10-02T00:49:28.882Z,52.0970
2022-10-02T00:51:22.799Z,52.1090
2022-10-02T00:52:24.975Z,52.0970
2022-10-02T00:53:27.230Z,52.1220
2022-10-02T00:54:29.449Z,52.1610
2022-10-02T00:55:29.613Z,52.1090
2022-10-02T00:56:31.821Z,52.0620
2022-10-02T00:57:34.077Z,51.9780
2022-10-02T00:58:36.415Z,51.9590
2022-10-02T00:59:38.618Z,51.9800
2022-10-02T01:00:40.933Z,52.0680
2022-10-02T01:01:43.158Z,52.1260
2022-10-02T01:02:45.437Z,52.1450
2022-10-02T01:03:47.733Z,52.1110
2022-10-02T01:04:47.803Z,52.0970
2022-10-02T01:05:50.029Z,52.0760
2022-10-02T01:06:52.296Z,52.0970
2022-10-02T01:07:54.480Z,52.1530
2022-10-02T01:08:56.737Z,52.0370
2022-10-02T01:09:58.958Z,52.0100
2022-10-02T01:11:01.268Z,51.9780
2022-10-02T01:12:03.480Z,52.0100
2022-10-02T01:13:05.680Z,51.9660
2022-10-02T01:14:07.921Z,51.9910
2022-10-02T01:15:10.136Z,51.9320
2022-10-02T01:16:10.232Z,51.9530
2022-10-02T01:17:12.455Z,52.0160
2022-10-02T01:18:14.733Z,51.9970
2022-10-02T01:19:17.096Z,51.9800
2022-10-02T01:20:19.268Z,51.8950
2022-10-02T01:21:21.524Z,51.9560
2022-10-02T01:22:23.775Z,51.8640
2022-10-02T01:23:26.068Z,51.9200
2022-10-02T01:24:26.152Z,51.9720
2022-10-02T01:25:28.354Z,51.9200
2022-10-02T01:26:30.648Z,51.9140
2022-10-02T01:27:35.523Z,51.9720
2022-10-02T01:28:34.998Z,52.0390
2022-10-02T01:29:37.210Z,51.9530
2022-10-02T01:30:39.433Z,51.9140
2022-10-02T01:31:41.776Z,51.9720
2022-10-02T01:32:43.950Z,51.9330
2022-10-02T01:33:46.315Z,51.9720
2022-10-02T01:34:46.935Z,51.9410
2022-10-02T01:35:48.735Z,51.9390
2022-10-02T01:36:50.947Z,52.0030
2022-10-02T01:37:53.271Z,52.0260
2022-10-02T01:38:55.590Z,52.0280
2022-10-02T01:39:57.984Z,51.9800
2022-10-02T01:41:00.257Z,51.9660
2022-10-02T01:42:00.440Z,51.9800
2022-10-02T01:43:02.789Z,51.9320
2022-10-02T01:44:05.190Z,51.9200
2022-10-02T01:45:07.488Z,51.9140
2022-10-02T01:46:09.878Z,52.0030
2022-10-02T01:47:09.993Z,51.8370
2022-10-02T01:48:12.372Z,51.8770
2022-10-02T01:49:14.648Z,51.8430
2022-10-02T01:50:17.002Z,51.8370
2022-10-02T01:51:19.266Z,51.8430
2022-10-02T01:52:21.637Z,51.8370
2022-10-02T01:53:21.752Z,51.8490
2022-10-02T01:54:24.062Z,51.9390
2022-10-02T01:55:26.383Z,51.8770
2022-10-02T01:56:28.690Z,51.8830
2022-10-02T01:57:30.972Z,51.9200
2022-10-02T01:58:31.120Z,51.8830
2022-10-02T01:59:33.353Z,51.8950
2022-10-02T02:00:35.736Z,51.9270
2022-10-02T02:01:37.978Z,51.9240
2022-10-02T02:02:40.336Z,51.9800
2022-10-02T02:03:42.486Z,51.9540
2022-10-02T02:04:44.821Z,51.8430
2022-10-02T02:05:47.142Z,51.8830
2022-10-02T02:06:47.234Z,51.9200
2022-10-02T02:07:49.560Z,51.9140
2022-10-02T02:08:51.873Z,51.9020
2022-10-02T02:09:54.089Z,51.9430
2022-10-02T02:10:56.366Z,51.8950
2022-10-02T02:11:58.680Z,51.8490
2022-10-02T02:13:00.989Z,51.9140
2022-10-02T02:14:01.108Z,51.9070
2022-10-02T02:15:03.426Z,51.8760
2022-10-02T02:16:05.794Z,51.7590
2022-10-02T02:17:08.051Z,51.7600
2022-10-02T02:18:10.261Z,51.7540
2022-10-02T02:19:12.505Z,51.7400
2022-10-02T02:20:14.781Z,51.7750
2022-10-02T02:21:14.970Z,51.7810
2022-10-02T02:22:17.113Z,51.8120
2022-10-02T02:23:19.348Z,51.8890
2022-10-02T02:24:21.523Z,51.8830
2022-10-02T02:25:23.728Z,51.8970
2022-10-02T02:26:25.962Z,51.9200
2022-10-02T02:27:28.179Z,51.8760
2022-10-02T02:28:30.527Z,51.9430
2022-10-02T02:29:32.735Z,51.9020
2022-10-02T02:30:37.087Z,51.8060
2022-10-02T02:30:39.234Z,51.7990
2022-10-02T02:31:41.506Z,51.9330
2022-10-02T02:32:43.683Z,51.9270
2022-10-02T02:33:45.807Z,51.8240
2022-10-02T02:34:47.948Z,51.8830
2022-10-02T02:35:50.138Z,51.9040
2022-10-02T02:36:52.448Z,51.8950
2022-10-02T02:37:54.568Z,51.8240
2022-10-02T02:38:56.795Z,51.7990
2022-10-02T02:39:58.945Z,51.7540
2022-10-02T02:41:01.214Z,51.8180
2022-10-02T02:42:03.394Z,51.9010
2022-10-02T02:43:05.547Z,51.8060
2022-10-02T02:44:07.764Z,51.8120
2022-10-02T02:45:10.022Z,51.7870
2022-10-02T02:46:12.332Z,51.7350
2022-10-02T02:47:14.573Z,51.7720
2022-10-02T02:48:14.636Z,51.8370
2022-10-02T02:49:16.913Z,51.7690
2022-10-02T02:50:19.167Z,51.7420
2022-10-02T02:51:21.426Z,51.7600
2022-10-02T02:52:23.726Z,51.7130
2022-10-02T02:53:25.904Z,51.7520
2022-10-02T02:54:28.167Z,51.7170
2022-10-02T02:55:30.431Z,51.7040
2022-10-02T02:56:32.788Z,51.7410
2022-10-02T02:57:32.905Z,51.7470
2022-10-02T02:58:35.110Z,51.7750
2022-10-02T02:59:37.336Z,51.6510
2022-10-02T03:00:39.660Z,51.6360
2022-10-02T03:01:41.920Z,51.7350
2022-10-02T03:02:44.175Z,51.8120
2022-10-02T03:03:46.394Z,51.7850
2022-10-02T03:04:46.467Z,51.8000
2022-10-02T03:05:48.726Z,51.7290
2022-10-02T03:06:50.978Z,51.7040
2022-10-02T03:07:53.297Z,51.7100
2022-10-02T03:08:55.475Z,51.7480
2022-10-02T03:09:57.716Z,51.7600
2022-10-02T03:10:59.950Z,51.7350
2022-10-02T03:12:02.200Z,51.8370
2022-10-02T03:13:04.477Z,51.8140
2022-10-02T03:14:06.688Z,51.8350
2022-10-02T03:15:06.766Z,51.8060
2022-10-02T03:16:09.061Z,51.7170
2022-10-02T03:18:11.481Z,51.8660
2022-10-02T03:19:13.612Z,51.8120
2022-10-02T03:20:15.845Z,51.8060
2022-10-02T03:21:18.051Z,51.7930
2022-10-02T03:22:20.292Z,51.7470
2022-10-02T03:23:22.567Z,51.7170
2022-10-02T03:24:24.782Z,51.7600
2022-10-02T03:25:27.027Z,51.7470
2022-10-02T03:26:27.131Z,51.7410
2022-10-02T03:27:34.726Z,51.7730
2022-10-02T03:28:54.536Z,51.8140
2022-10-02T03:29:33.902Z,51.8910
2022-10-02T03:30:36.172Z,51.8470
2022-10-02T03:31:38.473Z,51.7040
2022-10-02T03:32:40.696Z,51.6920
2022-10-02T03:33:43.019Z,51.7220
2022-10-02T03:34:45.224Z,51.7470
2022-10-02T03:35:45.358Z,51.7290
2022-10-02T03:36:47.632Z,51.7350
2022-10-02T03:37:49.864Z,51.6770
2022-10-02T03:39:06.514Z,51.6770
2022-10-02T03:39:54.350Z,51.7700
2022-10-02T03:40:56.583Z,51.8550
2022-10-02T03:41:58.819Z,51.8120
2022-10-02T03:43:01.025Z,51.8250
2022-10-02T03:44:03.289Z,51.8020
2022-10-02T03:45:05.522Z,51.7850
2022-10-02T03:46:05.707Z,51.7600
2022-10-02T03:47:07.887Z,51.7540
2022-10-02T03:48:10.171Z,51.6690
2022-10-02T03:49:12.474Z,51.6240
2022-10-02T03:50:14.696Z,51.6820
2022-10-02T03:51:16.935Z,51.5990
2022-10-02T03:52:19.222Z,51.5860
2022-10-02T03:53:19.355Z,51.6710
2022-10-02T03:54:21.690Z,51.6920
2022-10-02T03:55:23.853Z,51.6830
2022-10-02T03:56:26.028Z,51.6830
2022-10-02T03:57:28.214Z,51.6650
2022-10-02T03:58:30.417Z,51.6710
2022-10-02T03:59:32.625Z,51.6970
2022-10-02T04:00:34.834Z,51.6590
2022-10-02T04:01:37.162Z,51.6920
2022-10-02T04:02:39.291Z,51.6890
2022-10-02T04:03:41.557Z,51.7660
2022-10-02T04:04:43.799Z,51.6770
2022-10-02T04:05:45.992Z,51.7100
2022-10-02T04:06:48.232Z,51.7660
2022-10-02T04:07:52.569Z,51.7100
2022-10-02T04:08:50.595Z,51.6890
2022-10-02T04:09:52.786Z,51.6770
2022-10-02T04:10:54.978Z,51.6650
2022-10-02T04:11:57.217Z,51.6300
2022-10-02T04:12:59.389Z,51.6360
2022-10-02T04:14:01.546Z,51.6440
2022-10-02T04:15:03.780Z,51.6650
2022-10-02T04:16:06.008Z,51.6980
2022-10-02T04:17:08.200Z,51.7290
2022-10-02T04:18:10.374Z,51.6970
2022-10-02T04:19:12.608Z,51.7220
2022-10-02T04:20:14.871Z,51.6710
2022-10-02T04:21:17.063Z,51.6970
2022-10-02T04:22:17.143Z,51.7100
2022-10-02T04:23:19.366Z,51.6650
2022-10-02T04:24:21.618Z,51.6520
2022-10-02T04:25:23.943Z,51.6690
2022-10-02T04:26:26.107Z,51.5740
2022-10-02T04:27:28.328Z,51.6400
2022-10-02T04:28:30.625Z,51.6920
2022-10-02T04:29:32.772Z,51.7230
2022-10-02T04:30:34.999Z,51.7600
2022-10-02T04:31:37.329Z,51.7350
2022-10-02T04:32:39.397Z,51.7100
2022-10-02T04:33:41.634Z,51.7170
2022-10-02T04:34:41.713Z,51.7350
2022-10-02T04:35:43.976Z,51.7730
2022-10-02T04:36:46.127Z,51.7480
2022-10-02T04:37:48.322Z,51.6770
2022-10-02T04:38:50.516Z,51.6460
2022-10-02T04:39:52.743Z,51.6770
2022-10-02T04:40:54.977Z,51.6650
2022-10-02T04:41:57.120Z,51.6400
2022-10-02T04:42:59.344Z,51.6770
2022-10-02T04:44:01.560Z,51.6710
2022-10-02T04:45:03.732Z,51.6830
2022-10-02T04:46:05.952Z,51.6650
2022-10-02T04:47:08.129Z,51.6650
2022-10-02T04:48:10.370Z,51.6710
2022-10-02T04:49:12.566Z,51.6400
2022-10-02T04:50:14.796Z,51.6270
2022-10-02T04:51:14.898Z,51.6340
2022-10-02T04:52:17.030Z,51.6210
2022-10-02T04:53:19.284Z,51.6210
2022-10-02T04:54:21.535Z,51.6270
2022-10-02T04:55:23.801Z,51.5760
2022-10-02T04:56:26.096Z,51.6840
2022-10-02T04:57:28.275Z,51.6270
2022-10-02T04:58:30.510Z,51.6150
2022-10-02T04:59:32.746Z,51.7100
2022-10-02T05:00:35.070Z,51.6710
2022-10-02T05:01:35.147Z,51.7190
2022-10-02T05:02:37.267Z,51.7120
2022-10-02T05:03:39.433Z,51.6970
2022-10-02T05:04:41.698Z,51.6270
2022-10-02T05:05:43.853Z,51.6520
2022-10-02T05:06:46.118Z,51.6330
2022-10-02T05:07:48.342Z,51.6650
2022-10-02T05:08:50.524Z,51.6400
2022-10-02T05:09:52.727Z,51.6590
2022-10-02T05:10:54.976Z,51.6830
2022-10-02T05:11:57.281Z,51.7100
2022-10-02T05:12:59.517Z,51.7810
2022-10-02T05:14:01.753Z,51.7810
2022-10-02T05:15:03.937Z,51.7660
2022-10-02T05:16:04.059Z,51.7660
2022-10-02T05:17:06.283Z,51.8060
2022-10-02T05:18:08.468Z,51.7930
2022-10-02T05:19:10.719Z,51.8180
2022-10-02T05:20:12.931Z,51.8000
2022-10-02T05:21:15.129Z,51.8000
2022-10-02T05:23:19.820Z,51.9620
2022-10-02T05:24:21.986Z,51.8490
2022-10-02T05:25:24.234Z,51.7690
2022-10-02T05:26:26.481Z,51.7590
2022-10-02T05:27:26.590Z,51.8060
2022-10-02T05:28:28.934Z,51.8700
2022-10-02T05:29:31.018Z,51.9470
2022-10-02T05:30:33.230Z,51.9600
2022-10-02T05:31:35.584Z,51.9060
2022-10-02T05:32:37.755Z,51.9500
2022-10-02T05:33:41.820Z,51.9020
2022-10-02T05:34:42.198Z,51.9430
2022-10-02T05:35:44.416Z,52.0080
2022-10-02T05:36:46.678Z,51.9770
2022-10-02T05:37:48.998Z,52.0500
2022-10-02T05:38:49.014Z,52.1140
2022-10-02T05:39:51.232Z,52.0950
2022-10-02T05:40:53.450Z,52.1520
2022-10-02T05:41:55.676Z,52.2060
2022-10-02T05:42:57.956Z,52.2930
2022-10-02T05:44:00.234Z,52.2990
2022-10-02T05:45:02.493Z,52.3350
2022-10-02T05:46:04.721Z,52.3710
2022-10-02T05:47:06.924Z,52.4060
2022-10-02T05:48:09.137Z,52.3770
2022-10-02T05:49:09.268Z,52.5410
2022-10-02T05:50:11.516Z,52.5500
2022-10-02T05:51:13.800Z,52.6020
2022-10-02T05:52:16.080Z,52.5440
2022-10-02T05:53:18.359Z,52.6440
2022-10-02T05:54:20.649Z,52.6270
2022-10-02T05:55:22.905Z,52.7250
2022-10-02T05:56:25.140Z,52.7160
2022-10-02T05:57:27.377Z,52.7170
2022-10-02T05:58:29.651Z,52.7310
2022-10-02T05:59:31.953Z,52.7650
2022-10-02T06:00:34.161Z,52.8690
2022-10-02T06:01:36.423Z,52.9170
2022-10-02T06:02:39.580Z,52.8180
2022-10-02T06:03:40.922Z,52.6150
2022-10-02T06:04:41.065Z,52.6450
2022-10-02T06:05:43.304Z,52.6740
2022-10-02T06:06:45.564Z,52.7510
2022-10-02T06:07:47.852Z,52.7260
2022-10-02T06:08:50.139Z,52.6380
2022-10-02T06:09:52.489Z,52.6860
2022-10-02T06:10:54.720Z,52.7510
2022-10-02T06:11:56.976Z,52.7700
2022-10-02T06:12:57.059Z,52.7450
2022-10-02T06:13:59.299Z,52.6900
2022-10-02T06:15:01.633Z,52.6250
2022-10-02T06:16:03.849Z,52.6170
2022-10-02T06:17:06.068Z,52.6570
2022-10-02T06:18:08.298Z,52.5840
2022-10-02T06:19:10.586Z,52.6720
2022-10-02T06:20:12.881Z,52.6550
2022-10-02T06:21:15.144Z,52.6670
2022-10-02T06:22:15.277Z,52.7110
2022-10-02T06:23:17.565Z,52.7110
2022-10-02T06:24:19.830Z,52.6480
2022-10-02T06:25:22.109Z,52.5650
2022-10-02T06:26:24.375Z,52.5300
2022-10-02T06:27:26.652Z,52.4800
2022-10-02T06:28:28.980Z,52.5280
2022-10-02T06:29:29.074Z,52.5650
2022-10-02T06:30:31.371Z,52.5590
2022-10-02T06:31:33.613Z,52.5340
2022-10-02T06:32:35.805Z,52.5530
2022-10-02T06:33:38.032Z,52.5280
2022-10-02T06:34:43.515Z,52.6190
2022-10-02T06:35:42.546Z,52.5960
2022-10-02T06:36:44.732Z,52.6320
2022-10-02T06:37:46.959Z,52.5210
2022-10-02T06:38:49.236Z,52.5210
2022-10-02T06:39:49.357Z,52.5340
2022-10-02T06:40:51.673Z,52.5840
2022-10-02T06:41:53.907Z,52.5530
2022-10-02T06:42:56.182Z,52.4590
2022-10-02T06:43:58.455Z,52.4800
2022-10-02T06:45:00.755Z,52.4280
2022-10-02T06:46:03.112Z,52.4590
2022-10-02T06:47:03.132Z,52.4570
2022-10-02T06:48:05.426Z,52.4860
2022-10-02T06:49:07.705Z,52.4090
2022-10-02T06:50:09.973Z,52.4860
2022-10-02T06:51:12.222Z,52.4760
2022-10-02T06:52:14.361Z,52.4940
2022-10-02T06:53:16.595Z,52.5240
2022-10-02T06:54:18.792Z,52.3030
2022-10-02T06:55:21.010Z,52.1540
2022-10-02T06:56:23.273Z,52.3370
2022-10-02T06:57:25.457Z,52.3170
2022-10-02T06:58:27.697Z,52.3170
2022-10-02T06:59:27.791Z,52.3500
2022-10-02T07:00:30.087Z,52.2860
2022-10-02T07:01:32.274Z,52.2440
2022-10-02T07:02:34.546Z,52.2440
2022-10-02T07:03:36.669Z,52.0000
2022-10-02T07:04:38.869Z,52.0050
2022-10-02T07:05:41.132Z,52.0590
2022-10-02T07:06:43.461Z,52.0960
2022-10-02T07:07:45.616Z,52.2460
2022-10-02T07:08:47.853Z,52.2920
2022-10-02T07:09:50.057Z,52.3520
2022-10-02T07:10:50.094Z,52.3680
2022-10-02T07:11:52.366Z,52.3620
2022-10-02T07:12:54.507Z,52.3930
2022-10-02T07:13:56.766Z,52.3490
2022-10-02T07:14:58.991Z,52.2750
2022-10-02T07:16:01.378Z,52.3350
2022-10-02T07:17:03.537Z,52.2950
2022-10-02T07:18:05.712Z,52.2920
2022-10-02T07:19:07.961Z,52.2670
2022-10-02T07:20:10.182Z,52.2500
2022-10-02T07:21:12.440Z,52.2670
2022-10-02T07:22:39.541Z,52.2080
2022-10-02T07:23:14.821Z,52.2250
2022-10-02T07:24:17.081Z,52.2370
2022-10-02T07:25:19.327Z,52.2560
2022-10-02T07:26:21.555Z,52.2370
2022-10-02T07:27:23.836Z,52.1890
2022-10-02T07:28:26.121Z,52.1770
2022-10-02T07:29:28.250Z,52.1630
2022-10-02T07:30:30.490Z,52.1850
2022-10-02T07:31:32.851Z,52.1830
2022-10-02T07:32:35.022Z,52.1130
2022-10-02T07:33:35.050Z,52.0670
2022-10-02T07:34:37.290Z,52.0750
2022-10-02T07:35:39.462Z,52.1130
2022-10-02T07:36:41.762Z,52.0480
2022-10-02T07:37:44.106Z,51.9880
2022-10-02T07:38:46.325Z,51.9920
2022-10-02T07:39:48.608Z,52.0000
2022-10-02T07:40:48.719Z,51.9650
2022-10-02T07:41:50.926Z,51.9880
2022-10-02T07:42:53.217Z,52.0490
2022-10-02T07:43:55.478Z,52.1000
2022-10-02T07:44:57.681Z,52.0480
2022-10-02T07:46:00.007Z,52.0360
2022-10-02T07:47:02.257Z,51.9630
2022-10-02T07:48:04.504Z,51.9750
2022-10-02T07:49:06.735Z,51.9280
2022-10-02T07:50:06.842Z,51.9220
2022-10-02T07:51:09.118Z,51.9150
2022-10-02T07:52:09.235Z,51.9090
2022-10-02T07:53:11.536Z,51.8860
2022-10-02T07:54:13.721Z,51.8220
2022-10-02T07:56:42.005Z,51.8740
2022-10-02T07:57:42.095Z,51.8750
2022-10-02T07:58:43.235Z,51.8290
2022-10-02T08:00:46.638Z,51.8160
2022-10-02T08:01:48.893Z,51.8100
2022-10-02T08:02:51.147Z,51.7850
2022-10-02T08:03:53.309Z,51.7380
2022-10-02T08:04:55.488Z,51.7440
2022-10-02T08:05:57.704Z,51.7110
2022-10-02T08:06:57.787Z,51.7110
2022-10-02T08:07:47.484Z,51.6150
2022-10-02T08:08:49.374Z,51.6140
2022-10-02T08:09:51.691Z,51.6260
2022-10-02T08:10:53.801Z,51.6390
2022-10-02T08:11:56.042Z,51.5470
2022-10-02T08:12:58.223Z,51.4710
2022-10-02T08:14:00.441Z,51.5060
2022-10-02T08:15:02.668Z,51.4540
2022-10-02T08:16:04.965Z,51.4010
2022-10-02T08:17:07.075Z,51.4130
2022-10-02T08:18:30.186Z,51.2350
2022-10-02T08:19:11.464Z,51.1990
2022-10-02T08:20:11.587Z,51.0360
2022-10-02T08:21:13.754Z,51.0880
2022-10-02T08:22:15.973Z,51.2040
2022-10-02T08:23:18.207Z,51.2460
2022-10-02T08:24:20.445Z,51.1240
2022-10-02T08:25:22.716Z,51.0390
2022-10-02T08:26:24.905Z,50.9520
2022-10-02T08:27:27.073Z,50.7850
2022-10-02T08:28:29.330Z,50.7210
2022-10-02T08:29:31.458Z,50.8990
2022-10-02T08:30:33.736Z,50.8410
2022-10-02T08:31:35.956Z,50.6920
2022-10-02T08:32:38.075Z,50.7050
2022-10-02T08:33:40.291Z,50.7440
2022-10-02T08:34:42.445Z,50.7690
2022-10-02T08:35:44.652Z,50.6580
2022-10-02T08:36:46.837Z,50.8550
2022-10-02T08:37:46.941Z,50.6740
2022-10-02T08:38:53.865Z,50.6160
2022-10-02T08:39:49.268Z,50.6820
2022-10-02T08:40:51.426Z,50.6550
2022-10-02T08:41:53.640Z,50.6330
2022-10-02T08:42:55.869Z,50.5570
2022-10-02T08:43:58.114Z,50.5380
2022-10-02T08:45:00.264Z,50.6410
2022-10-02T08:46:02.735Z,50.6350
2022-10-02T08:47:04.681Z,50.6620
2022-10-02T08:48:06.954Z,50.6820
2022-10-02T08:49:09.280Z,50.6860
2022-10-02T08:50:11.440Z,50.7340
2022-10-02T08:51:13.700Z,50.7380
2022-10-02T08:52:15.878Z,50.7150
2022-10-02T08:53:18.112Z,50.6280
2022-10-02T08:54:20.356Z,50.8030
2022-10-02T08:55:22.612Z,50.8100
2022-10-02T08:56:22.766Z,50.7970
2022-10-02T08:57:24.980Z,50.7930
2022-10-02T08:58:27.237Z,50.6900
2022-10-02T08:59:29.521Z,50.7430
2022-10-02T09:00:31.809Z,50.7340
2022-10-02T09:01:34.145Z,50.8040
2022-10-02T09:02:36.418Z,50.7570
2022-10-02T09:03:38.672Z,50.7150
2022-10-02T09:04:38.853Z,50.7930
2022-10-02T09:05:41.074Z,50.7850
2022-10-02T09:06:43.370Z,50.7930
2022-10-02T09:07:45.603Z,50.6410
2022-10-02T09:08:47.881Z,50.8000
2022-10-02T09:09:50.198Z,50.6990
2022-10-02T09:10:52.510Z,50.8140
2022-10-02T09:11:52.659Z,50.7690
2022-10-02T09:12:54.871Z,50.7200
2022-10-02T09:13:57.134Z,50.7470
2022-10-02T09:14:59.418Z,50.6330
2022-10-02T09:16:01.725Z,50.5940
2022-10-02T09:17:03.940Z,50.6560
2022-10-02T09:18:06.145Z,50.6290
2022-10-02T09:19:08.385Z,50.6910
2022-10-02T09:20:08.532Z,50.5180
2022-10-02T09:21:11.657Z,50.6020
2022-10-02T09:22:13.077Z,50.6270
2022-10-02T09:23:15.245Z,50.6270
2022-10-02T09:24:17.435Z,50.5800
2022-10-02T09:25:19.663Z,50.6040
2022-10-02T09:26:21.902Z,50.5670
2022-10-02T09:27:24.168Z,50.4110
2022-10-02T09:28:26.457Z,50.4970
2022-10-02T09:29:28.596Z,50.5390
2022-10-02T09:30:30.855Z,50.5820
2022-10-02T09:31:33.181Z,50.5470
2022-10-02T09:32:33.247Z,50.5860
2022-10-02T09:33:35.456Z,50.6440
2022-10-02T09:34:37.626Z,50.5390
2022-10-02T09:35:39.845Z,50.5060
2022-10-02T09:36:42.067Z,50.4810
2022-10-02T09:37:44.377Z,50.5630
2022-10-02T09:38:46.599Z,50.5840
2022-10-02T09:39:48.862Z,50.6090
2022-10-02T09:40:51.116Z,50.5370
2022-10-02T09:41:53.380Z,50.5210
2022-10-02T09:42:53.526Z,50.5330
2022-10-02T09:43:55.779Z,50.5990
2022-10-02T09:45:01.168Z,50.5390
2022-10-02T09:46:00.364Z,50.5620
2022-10-02T09:47:02.590Z,50.4610
2022-10-02T09:48:04.867Z,50.6510
2022-10-02T09:49:07.084Z,50.5930
2022-10-02T09:50:07.229Z,50.5620
2022-10-02T09:51:09.486Z,50.6440
2022-10-02T09:52:11.739Z,50.6280
2022-10-02T09:53:14.102Z,50.7100
2022-10-02T09:54:16.387Z,50.6970
2022-10-02T09:55:17.597Z,50.7450
2022-10-02T09:56:21.035Z,50.7640
2022-10-02T09:57:19.071Z,50.8090
2022-10-02T09:58:21.415Z,50.7680
2022-10-02T09:59:23.762Z,50.7290
2022-10-02T10:00:26.081Z,50.7800
2022-10-02T10:01:26.323Z,50.7920
2022-10-02T10:02:28.628Z,50.7430
2022-10-02T10:03:30.926Z,50.7680
2022-10-02T10:04:47.874Z,50.7620
2022-10-02T10:05:35.530Z,50.7680
2022-10-02T10:06:38.257Z,50.8460
2022-10-02T10:07:37.928Z,50.8380
2022-10-02T10:08:40.245Z,50.8570
2022-10-02T10:09:42.474Z,50.8210
2022-10-02T10:10:44.761Z,50.8440
2022-10-02T10:11:46.996Z,50.7920
2022-10-02T10:12:49.197Z,50.8110
2022-10-02T10:13:51.458Z,50.8210
2022-10-02T10:14:53.667Z,50.8880
2022-10-02T10:15:55.847Z,50.8630
2022-10-02T10:16:58.017Z,50.8030
2022-10-02T10:18:00.229Z,50.8090
2022-10-02T10:19:00.646Z,50.8980
2022-10-02T10:20:02.565Z,50.8690
2022-10-02T10:21:04.807Z,50.8690
2022-10-02T10:22:07.061Z,50.8380
2022-10-02T10:23:09.284Z,50.8630
2022-10-02T10:24:11.526Z,50.8630
2022-10-02T10:25:13.753Z,50.8820
2022-10-02T10:26:15.938Z,50.8050
2022-10-02T10:27:18.167Z,50.8380
2022-10-02T10:28:20.440Z,50.7610
2022-10-02T10:29:22.627Z,50.8750
2022-10-02T10:30:24.821Z,50.8110
2022-10-02T10:31:24.982Z,50.7930
2022-10-02T10:32:27.076Z,50.7720
2022-10-02T10:33:29.493Z,50.7520
2022-10-02T10:34:31.627Z,50.7430
2022-10-02T10:35:33.836Z,50.6340
2022-10-02T10:36:36.050Z,50.6610
2022-10-02T10:37:38.287Z,50.6340
2022-10-02T10:38:40.471Z,50.6960
2022-10-02T10:39:42.721Z,50.6900
2022-10-02T10:40:44.848Z,50.6840
2022-10-02T10:41:47.038Z,50.6980
2022-10-02T10:43:06.603Z,50.7030
2022-10-02T10:43:51.466Z,50.7280
2022-10-02T10:44:51.554Z,50.7400
2022-10-02T10:45:53.780Z,50.7460
2022-10-02T10:46:55.941Z,50.6490
2022-10-02T10:47:58.125Z,50.6740
2022-10-02T10:49:00.337Z,50.6080
2022-10-02T10:50:02.528Z,50.6740
2022-10-02T10:51:04.628Z,50.7090
2022-10-02T10:52:06.829Z,50.7140
2022-10-02T10:53:09.068Z,50.6740
2022-10-02T10:54:11.257Z,50.7690
2022-10-02T10:55:13.501Z,50.7900
2022-10-02T10:56:15.717Z,50.8040
2022-10-02T10:57:17.939Z,50.8140
2022-10-02T10:58:20.170Z,50.7220
2022-10-02T10:59:25.344Z,50.6890
2022-10-02T11:00:22.509Z,50.7320
2022-10-02T11:01:24.757Z,50.7670
2022-10-02T11:02:24.819Z,50.7550
2022-10-02T11:03:27.008Z,50.7200
2022-10-02T11:04:29.286Z,50.7160
2022-10-02T11:05:29.434Z,50.7200
2022-10-02T11:06:31.722Z,50.6810
2022-10-02T11:07:33.973Z,50.6890
2022-10-02T11:08:36.289Z,50.7840
2022-10-02T11:09:36.429Z,50.7650
2022-10-02T11:10:38.931Z,50.7860
2022-10-02T11:11:41.003Z,50.6190
2022-10-02T11:12:43.273Z,50.6380
2022-10-02T11:13:45.574Z,50.6380
2022-10-02T11:14:47.880Z,50.6980
2022-10-02T11:15:50.223Z,50.5970
2022-10-02T11:16:50.359Z,50.6200
2022-10-02T11:17:52.610Z,50.6480
2022-10-02T11:18:54.849Z,50.6280
2022-10-02T11:19:57.093Z,50.7070
2022-10-02T11:20:59.410Z,50.7010
2022-10-02T11:22:01.628Z,50.7650
2022-10-02T11:23:03.899Z,50.7390
2022-10-02T11:24:06.132Z,50.7680
2022-10-02T11:25:11.986Z,50.6960
2022-10-02T11:26:08.465Z,50.4740
2022-10-02T11:27:10.699Z,50.5670
2022-10-02T11:28:13.013Z,50.6390
2022-10-02T11:29:15.143Z,50.7380
2022-10-02T11:30:17.423Z,50.6860
2022-10-02T11:31:19.804Z,50.7850
2022-10-02T11:32:21.916Z,50.8620
2022-10-02T11:33:24.179Z,50.5310
2022-10-02T11:34:26.390Z,50.6530
2022-10-02T11:35:28.676Z,50.5850
2022-10-02T11:36:28.821Z,50.5770
2022-10-02T11:37:31.005Z,50.6410
2022-10-02T11:38:33.217Z,51.0780
2022-10-02T11:39:35.457Z,50.9080
2022-10-02T11:40:37.749Z,50.7720
2022-10-02T11:41:40.075Z,50.7850
2022-10-02T11:42:42.068Z,50.8760
2022-10-02T11:43:44.355Z,50.7190
2022-10-02T11:44:46.507Z,50.9180
2022-10-02T11:45:48.785Z,50.8000
2022-10-02T11:46:50.998Z,50.8320
2022-10-02T11:47:53.169Z,50.8400
2022-10-02T11:48:53.248Z,50.8130
2022-10-02T11:49:55.481Z,50.7720
2022-10-02T11:50:57.670Z,50.8240
2022-10-02T11:51:59.938Z,50.7660
2022-10-02T11:53:02.143Z,50.8180
2022-10-02T11:54:04.360Z,50.9960
2022-10-02T11:55:06.560Z,50.9540
2022-10-02T11:56:08.716Z,51.0990
2022-10-02T11:57:10.985Z,51.1650
2022-10-02T11:58:13.175Z,51.1400
2022-10-02T11:59:15.361Z,51.0940
2022-10-02T12:00:17.617Z,51.1110
2022-10-02T12:01:19.871Z,50.9700
2022-10-02T12:02:22.207Z,51.2230
2022-10-02T12:03:22.343Z,51.1610
2022-10-02T12:04:24.383Z,51.2460
2022-10-02T12:05:26.620Z,51.2370
2022-10-02T12:06:28.869Z,51.0860
2022-10-02T12:07:31.132Z,51.0450
2022-10-02T12:08:33.335Z,50.9830
2022-10-02T12:09:35.507Z,51.0450
2022-10-02T12:10:37.739Z,50.9650
2022-10-02T12:11:40.314Z,51.1180
2022-10-02T12:12:42.177Z,51.1760
2022-10-02T12:13:44.379Z,51.1740
2022-10-02T12:14:46.546Z,51.1000
2022-10-02T12:15:48.763Z,50.9060
2022-10-02T12:16:48.948Z,50.9040
2022-10-02T12:17:51.068Z,50.7510
2022-10-02T12:18:53.202Z,50.7580
2022-10-02T12:19:55.366Z,50.7700
2022-10-02T12:20:57.540Z,50.8120
2022-10-02T12:21:59.733Z,50.7870
2022-10-02T12:23:01.975Z,50.7170
2022-10-02T12:24:04.142Z,50.7160
2022-10-02T12:25:06.350Z,50.6640
2022-10-02T12:26:08.517Z,50.7230
2022-10-02T12:27:10.705Z,50.8700
2022-10-02T12:28:12.987Z,50.7870
2022-10-02T12:29:15.069Z,50.8740
2022-10-02T12:30:17.228Z,50.8160
2022-10-02T12:31:19.475Z,50.8960
2022-10-02T12:32:21.685Z,51.0100
2022-10-02T12:33:23.825Z,50.9630